Time;durP1;ratioP1;P1;durP2;ratioP2;P2;SDS_P1;SDS_P2;PMS_P1;PMS_P2;Temp;Humidity;BMP_temperature;BMP_pressure;BME280_temperature;BME280_humidity;BME280_pressure;Samples;Min_cycle;Max_cycle;Signal;HPM_P1;HPM_P2
2021/03/29 00:00:28;;;;;;;40.58;22.98;;;153.70;2022.40;;;;;;5023883;28;20030;-65
2021/03/29 00:02:54;;;;;;;51.67;27.27;;;153.70;2022.40;;;;;;5024231;28;20026;-69
2021/03/29 00:05:22;;;;;;;48.10;26.52;;;153.80;1996.80;;;;;;5022127;28;20505;-66
2021/03/29 00:07:53;;;;;;;49.10;26.33;;;153.80;1996.80;;;;;;5018944;28;20030;-65
2021/03/29 00:10:20;;;;;;;53.33;27.52;;;153.90;1996.80;;;;;;5020781;28;20025;-65
2021/03/29 00:12:49;;;;;;;50.17;25.88;;;154.00;1971.20;;;;;;5021364;28;20273;-65
2021/03/29 00:15:23;;;;;;;45.67;24.92;;;154.00;1971.20;;;;;;5014770;28;20501;-66
2021/03/29 00:17:49;;;;;;;44.20;23.73;;;154.10;1945.60;;;;;;5013344;28;20173;-66
2021/03/29 00:20:23;;;;;;;42.28;23.92;;;154.20;1945.60;;;;;;5022773;28;21095;-65
2021/03/29 00:22:50;;;;;;;44.42;25.98;;;154.20;1945.60;;;;;;5030120;28;20477;-66
2021/03/29 00:25:18;;;;;;;40.47;22.33;;;154.30;1920.00;;;;;;5029630;28;20026;-67
2021/03/29 00:27:44;;;;;;;40.05;20.73;;;154.30;1920.00;;;;;;5013322;28;20058;-64
2021/03/29 00:30:14;;;;;;;42.42;22.95;;;154.40;1894.40;;;;;;5016082;28;20041;-66
2021/03/29 00:32:42;;;;;;;49.70;23.13;;;154.40;1894.40;;;;;;5016907;28;20570;-66
2021/03/29 00:35:09;;;;;;;66.18;28.42;;;154.40;1894.40;;;;;;5020564;28;20196;-65
2021/03/29 00:37:36;;;;;;;59.00;27.13;;;154.40;1894.40;;;;;;5026927;28;20406;-65
2021/03/29 00:40:05;;;;;;;44.30;23.63;;;154.40;1894.40;;;;;;5028724;28;20026;-67
2021/03/29 00:42:31;;;;;;;42.88;23.10;;;154.40;1945.60;;;;;;5014345;28;20029;-65
2021/03/29 00:44:57;;;;;;;40.20;22.67;;;154.50;1920.00;;;;;;5012123;28;20018;-66
2021/03/29 00:47:23;;;;;;;37.83;20.70;;;154.50;1920.00;;;;;;5016390;28;20116;-65
2021/03/29 00:49:49;;;;;;;32.53;19.90;;;154.40;1945.60;;;;;;5023475;28;20033;-65
2021/03/29 00:52:16;;;;;;;40.05;21.58;;;154.40;1971.20;;;;;;5017747;28;20022;-65
2021/03/29 00:54:43;;;;;;;36.42;20.58;;;154.40;1971.20;;;;;;5019145;28;20168;-66
2021/03/29 00:57:09;;;;;;;37.58;20.35;;;154.40;1971.20;;;;;;5026928;28;20079;-65
2021/03/29 00:59:36;;;;;;;33.28;19.75;;;154.30;1971.20;;;;;;5020647;28;20033;-66
2021/03/29 01:02:02;;;;;;;32.58;19.05;;;154.20;1971.20;;;;;;5013373;28;20056;-64
2021/03/29 01:04:28;;;;;;;35.05;20.17;;;154.20;1971.20;;;;;;5016245;28;20097;-65
2021/03/29 01:06:54;;;;;;;33.58;20.60;;;154.20;1971.20;;;;;;5017724;28;20028;-65
2021/03/29 01:09:27;;;;;;;37.05;22.02;;;154.20;2022.40;;;;;;5015707;28;20109;-67
2021/03/29 01:11:58;;;;;;;40.83;22.95;;;154.10;2022.40;;;;;;5013480;28;20475;-66
2021/03/29 01:14:32;;;;;;;46.03;24.33;;;154.10;2022.40;;;;;;5023626;28;20128;-65
2021/03/29 01:17:05;;;;;;;38.85;22.80;;;154.10;2022.40;;;;;;5018791;28;20394;-66
2021/03/29 01:19:41;;;;;;;35.47;21.60;;;154.10;2022.40;;;;;;5019215;28;20462;-65
2021/03/29 01:22:07;;;;;;;33.47;18.95;;;154.10;2048.00;;;;;;5026104;28;20499;-67
2021/03/29 01:24:51;;;;;;;33.08;18.67;;;154.10;2048.00;;;;;;5017210;28;20037;-65
2021/03/29 01:27:23;;;;;;;32.35;17.27;;;154.20;2048.00;;;;;;5022655;28;20424;-69
2021/03/29 01:29:51;;;;;;;28.25;16.02;;;154.20;2048.00;;;;;;5013757;28;20197;-67
2021/03/29 01:32:17;;;;;;;27.80;15.73;;;154.20;2048.00;;;;;;5012490;28;20029;-66
2021/03/29 01:34:44;;;;;;;27.15;15.38;;;154.20;2048.00;;;;;;5012200;28;20022;-65
2021/03/29 01:37:10;;;;;;;30.65;16.63;;;154.30;2048.00;;;;;;5020023;28;20062;-65
2021/03/29 01:39:39;;;;;;;31.30;17.13;;;154.40;2048.00;;;;;;5023488;28;20096;-66
2021/03/29 01:42:06;;;;;;;30.77;17.95;;;154.40;2022.40;;;;;;5017098;28;20095;-66
2021/03/29 01:44:31;;;;;;;32.05;19.38;;;154.40;2048.00;;;;;;5013045;28;20148;-65
2021/03/29 01:46:58;;;;;;;35.80;19.88;;;154.30;2073.60;;;;;;5013880;28;20112;-66
2021/03/29 01:49:26;;;;;;;35.58;20.73;;;154.20;2099.20;;;;;;5010443;28;20026;-66
2021/03/29 01:51:54;;;;;;;37.47;21.55;;;154.30;2099.20;;;;;;5011799;28;20100;-65
2021/03/29 01:54:20;;;;;;;35.42;21.08;;;154.30;2048.00;;;;;;5014101;28;20018;-67
2021/03/29 01:56:46;;;;;;;36.47;20.73;;;154.30;2022.40;;;;;;5022895;28;20505;-66
2021/03/29 01:59:12;;;;;;;40.67;20.67;;;154.40;2022.40;;;;;;5026301;28;20025;-66
2021/03/29 02:01:38;;;;;;;32.95;19.02;;;154.40;2048.00;;;;;;5021019;28;20033;-66
2021/03/29 02:04:07;;;;;;;33.53;18.08;;;154.30;2022.40;;;;;;5013847;28;20029;-66
2021/03/29 02:06:34;;;;;;;29.20;16.40;;;154.30;2022.40;;;;;;5022266;28;20355;-65
2021/03/29 02:09:00;;;;;;;28.75;15.02;;;154.40;2022.40;;;;;;5011097;28;20221;-66
2021/03/29 02:11:27;;;;;;;24.55;14.45;;;154.40;1996.80;;;;;;5015159;28;20052;-67
2021/03/29 02:13:55;;;;;;;35.42;18.33;;;154.40;1996.80;;;;;;5021382;28;20058;-66
2021/03/29 02:16:22;;;;;;;33.30;17.05;;;154.40;1996.80;;;;;;5030802;28;20026;-67
2021/03/29 02:18:52;;;;;;;28.38;15.52;;;154.40;1996.80;;;;;;5030276;28;20029;-66
2021/03/29 02:21:21;;;;;;;26.65;14.93;;;154.40;2022.40;;;;;;5030146;28;20026;-66
2021/03/29 02:23:49;;;;;;;26.77;15.20;;;154.40;1996.80;;;;;;5022984;28;20383;-66
2021/03/29 02:26:21;;;;;;;31.08;16.52;;;154.50;1996.80;;;;;;5021366;28;20513;-66
2021/03/29 02:28:48;;;;;;;33.15;17.35;;;154.50;1996.80;;;;;;5024398;28;20044;-66
2021/03/29 02:31:15;;;;;;;32.60;17.00;;;154.50;1971.20;;;;;;5015794;28;20025;-67
2021/03/29 02:33:41;;;;;;;30.70;16.35;;;154.50;1996.80;;;;;;5010670;28;20515;-66
2021/03/29 02:36:08;;;;;;;33.55;18.38;;;154.40;2022.40;;;;;;5010496;28;20104;-67
2021/03/29 02:38:34;;;;;;;35.90;20.05;;;154.20;2048.00;;;;;;5021817;28;20116;-66
2021/03/29 02:41:00;;;;;;;35.75;19.55;;;154.10;2048.00;;;;;;5030232;28;20454;-67
2021/03/29 02:43:27;;;;;;;32.13;18.50;;;153.90;2073.60;;;;;;5029945;28;20478;-68
2021/03/29 02:45:56;;;;;;;33.58;18.65;;;153.80;2099.20;;;;;;5030645;28;20017;-65
2021/03/29 02:48:26;;;;;;;33.53;17.55;;;153.60;2124.80;;;;;;5030368;28;20378;-66
2021/03/29 02:50:53;;;;;;;31.60;16.52;;;128.90;2124.80;;;;;;5030542;28;20021;-66
2021/03/29 02:53:26;;;;;;;29.42;16.17;;;128.80;2150.40;;;;;;5030563;28;20053;-65
2021/03/29 02:55:53;;;;;;;31.92;17.23;;;128.70;2150.40;;;;;;5030808;28;20121;-66
2021/03/29 02:58:25;;;;;;;29.42;16.23;;;128.50;2176.00;;;;;;5030588;28;20439;-65
2021/03/29 03:00:52;;;;;;;30.85;16.80;;;128.40;2201.60;;;;;;5029756;28;20048;-66
2021/03/29 03:03:19;;;;;;;28.50;15.68;;;128.30;2201.60;;;;;;5030123;28;20033;-65
2021/03/29 03:05:45;;;;;;;35.75;18.10;;;128.20;2227.20;;;;;;5030620;28;20140;-66
2021/03/29 03:08:11;;;;;;;33.00;18.20;;;128.00;2252.80;;;;;;5030233;28;20104;-67
2021/03/29 03:10:38;;;;;;;34.35;19.27;;;103.30;2227.20;;;;;;5029869;28;20342;-66
2021/03/29 03:13:07;;;;;;;34.20;19.40;;;103.20;2227.20;;;;;;5030362;28;20084;-65
2021/03/29 03:15:34;;;;;;;34.53;19.85;;;103.10;2227.20;;;;;;5030146;28;20023;-65
2021/03/29 03:18:03;;;;;;;34.80;19.30;;;103.00;2227.20;;;;;;5030334;28;20018;-66
2021/03/29 03:20:30;;;;;;;39.03;20.60;;;103.00;2227.20;;;;;;5030121;28;20079;-65
2021/03/29 03:23:03;;;;;;;38.55;21.45;;;102.90;2227.20;;;;;;5030405;28;20057;-66
2021/03/29 03:25:36;;;;;;;43.90;24.67;;;102.80;2227.20;;;;;;5030486;28;20156;-66
2021/03/29 03:28:04;;;;;;;43.05;24.33;;;102.80;2227.20;;;;;;5030136;28;20485;-65
2021/03/29 03:30:40;;;;;;;45.72;23.13;;;102.70;2227.20;;;;;;5030077;28;20381;-65
2021/03/29 03:33:08;;;;;;;46.67;25.27;;;102.70;2227.20;;;;;;5030207;28;20032;-66
2021/03/29 03:35:36;;;;;;;45.45;24.90;;;102.70;2227.20;;;;;;5030256;28;20018;-66
2021/03/29 03:38:06;;;;;;;44.03;25.25;;;102.50;2227.20;;;;;;5030221;28;20072;-67
2021/03/29 03:40:33;;;;;;;49.05;24.75;;;102.40;2227.20;;;;;;5029546;28;20021;-68
2021/03/29 03:43:01;;;;;;;38.70;22.85;;;77.70;2227.20;;;;;;5030402;28;20482;-66
2021/03/29 03:45:32;;;;;;;35.15;19.75;;;77.70;2227.20;;;;;;5029881;28;20099;-66
2021/03/29 03:47:59;;;;;;;37.08;20.05;;;77.70;2227.20;;;;;;5030185;28;20534;-66
2021/03/29 03:50:26;;;;;;;38.53;20.00;;;77.70;2227.20;;;;;;5029534;28;20033;-65
2021/03/29 03:52:52;;;;;;;36.67;19.23;;;77.70;2227.20;;;;;;5029463;28;20233;-66
2021/03/29 03:55:18;;;;;;;29.35;17.40;;;77.70;2227.20;;;;;;5029764;28;20025;-66
2021/03/29 03:57:45;;;;;;;30.77;16.13;;;77.70;2227.20;;;;;;5026649;28;20486;-66
2021/03/29 04:00:14;;;;;;;28.98;16.15;;;77.70;2227.20;;;;;;5029543;28;20029;-67
2021/03/29 04:02:40;;;;;;;28.23;15.70;;;77.70;2227.20;;;;;;5029969;28;20512;-67
2021/03/29 04:05:12;;;;;;;28.10;15.30;;;77.60;2227.20;;;;;;5030358;28;20072;-66
2021/03/29 04:07:39;;;;;;;30.02;16.35;;;77.50;2227.20;;;;;;5030245;28;20029;-65
2021/03/29 04:10:38;;;;;;;28.58;15.27;;;77.50;2227.20;;;;;;5029491;28;20073;-65
2021/03/29 04:12:56;;;;;;;23.70;15.00;;;77.40;2227.20;;;;;;5031494;28;20498;-66
2021/03/29 04:15:22;;;;;;;28.15;16.00;;;77.40;2227.20;;;;;;5033400;28;20033;-66
2021/03/29 04:17:48;;;;;;;28.48;16.17;;;77.40;2227.20;;;;;;5033524;28;20484;-66
2021/03/29 04:20:16;;;;;;;31.60;14.85;;;77.40;2227.20;;;;;;5033527;28;20037;-65
2021/03/29 04:22:41;;;;;;;27.20;14.60;;;77.30;2227.20;;;;;;5033544;28;20034;-67
2021/03/29 04:25:09;;;;;;;29.40;14.75;;;77.40;2227.20;;;;;;5033257;28;20065;-65
2021/03/29 04:27:35;;;;;;;33.50;16.48;;;77.40;2227.20;;;;;;5033184;28;20048;-66
2021/03/29 04:30:02;;;;;;;50.30;22.45;;;77.40;2227.20;;;;;;5032522;28;20029;-68
2021/03/29 04:32:27;;;;;;;38.28;19.58;;;77.40;2227.20;;;;;;5033261;28;20033;-68
2021/03/29 04:34:53;;;;;;;52.55;22.42;;;77.40;2227.20;;;;;;5033332;28;20055;-66
2021/03/29 04:37:19;;;;;;;43.53;21.63;;;77.40;2227.20;;;;;;5033128;28;20033;-66
2021/03/29 04:39:44;;;;;;;44.88;20.35;;;77.40;2227.20;;;;;;5032496;28;20028;-66
2021/03/29 04:42:10;;;;;;;39.75;18.42;;;77.50;2227.20;;;;;;5032904;28;20044;-66
2021/03/29 04:44:36;;;;;;;43.08;17.95;;;77.70;2227.20;;;;;;5033091;28;20022;-65
2021/03/29 04:47:02;;;;;;;32.30;16.42;;;102.50;2227.20;;;;;;5032848;28;20017;-65
2021/03/29 04:49:28;;;;;;;31.13;14.90;;;102.70;2227.20;;;;;;5032878;28;20108;-65
2021/03/29 04:51:53;;;;;;;34.17;15.98;;;102.90;2227.20;;;;;;5033114;28;20097;-65
2021/03/29 04:54:19;;;;;;;30.38;15.45;;;103.10;2227.20;;;;;;5032829;28;20026;-65
2021/03/29 04:56:46;;;;;;;28.23;14.98;;;128.00;2252.80;;;;;;5032619;28;20026;-66
2021/03/29 04:59:11;;;;;;;29.25;14.70;;;128.20;2252.80;;;;;;5032266;28;20104;-66
2021/03/29 05:01:37;;;;;;;30.27;16.13;;;128.70;2252.80;;;;;;5032658;28;20119;-67
2021/03/29 05:04:03;;;;;;;31.83;16.88;;;153.60;2252.80;;;;;;5032513;28;20026;-66
2021/03/29 05:06:30;;;;;;;34.45;19.42;;;154.00;2201.60;;;;;;5032642;28;20462;-67
2021/03/29 05:08:56;;;;;;;44.53;21.85;;;154.30;2124.80;;;;;;5027675;28;20100;-66
2021/03/29 05:11:23;;;;;;;45.45;24.13;;;179.20;2048.00;;;;;;5032670;28;20109;-66
2021/03/29 05:13:49;;;;;;;32.75;19.02;;;179.50;1996.80;;;;;;5032524;28;20033;-67
2021/03/29 05:16:15;;;;;;;48.38;26.45;;;179.50;1996.80;;;;;;5032194;28;20026;-66
2021/03/29 05:18:40;;;;;;;53.05;26.90;;;179.60;1971.20;;;;;;5032290;28;20025;-66
2021/03/29 05:21:06;;;;;;;52.67;27.35;;;179.90;1945.60;;;;;;5032395;28;20804;-67
2021/03/29 05:23:32;;;;;;;64.18;35.63;;;205.10;1894.40;;;;;;5032415;28;20025;-66
2021/03/29 05:25:57;;;;;;;61.45;33.92;;;205.60;1817.60;;;;;;5032266;28;20490;-66
2021/03/29 05:28:23;;;;;;;63.40;33.60;;;230.70;1766.40;;;;;;5030729;28;20053;-67
2021/03/29 05:30:49;;;;;;;61.90;34.10;;;231.10;1715.20;;;;;;5031919;28;20072;-67
2021/03/29 05:33:15;;;;;;;69.32;37.28;;;256.20;1664.00;;;;;;5031922;28;20101;-67
2021/03/29 05:35:40;;;;;;;87.72;40.35;;;256.70;1612.80;;;;;;5032119;28;20023;-66
2021/03/29 05:38:06;;;;;;;46.10;26.13;;;281.90;1561.60;;;;;;5032220;28;20030;-67
2021/03/29 05:40:32;;;;;;;37.83;18.77;;;282.30;1510.40;;;;;;5031436;28;20025;-67
2021/03/29 05:42:58;;;;;;;32.28;17.05;;;307.40;1484.80;;;;;;5032109;28;20501;-67
2021/03/29 05:45:30;;;;;;;31.83;19.17;;;308.10;1433.60;;;;;;5031600;28;20025;-70
2021/03/29 05:47:55;;;;;;;40.63;26.02;;;308.00;1433.60;;;;;;5032009;28;20037;-70
2021/03/29 05:50:21;;;;;;;33.38;22.42;;;333.20;1408.00;;;;;;5031246;28;20040;-66
2021/03/29 05:52:47;;;;;;;26.48;17.77;;;358.60;1356.80;;;;;;5032115;28;20091;-67
2021/03/29 05:55:15;;;;;;;34.95;20.67;;;359.10;1280.00;;;;;;5031739;28;20025;-68
2021/03/29 06:00:39;;;;;;;36.10;20.48;;;409.60;1228.80;;;;;;5029917;28;20117;-67
2021/03/29 06:03:28;;;;;;;34.85;19.52;;;435.20;1177.60;;;;;;5031581;28;20025;-69
2021/03/29 06:05:59;;;;;;;30.00;15.88;;;435.70;1126.40;;;;;;5030750;28;20383;-69
2021/03/29 06:08:26;;;;;;;28.13;16.30;;;460.90;1126.40;;;;;;5031157;28;20035;-68
2021/03/29 06:10:54;;;;;;;23.77;15.48;;;461.70;1049.60;;;;;;5031002;28;20032;-66
2021/03/29 06:13:27;;;;;;;22.60;14.15;;;461.50;1075.20;;;;;;5031490;28;20026;-68
2021/03/29 06:16:09;;;;;;;19.45;13.90;;;461.70;1049.60;;;;;;5031169;28;20498;-67
2021/03/29 06:18:37;;;;;;;23.27;17.35;;;486.80;998.40;;;;;;5027947;28;20028;-67
2021/03/29 06:21:11;;;;;;;23.13;16.90;;;512.20;972.80;;;;;;5031019;28;20136;-68
2021/03/29 06:23:38;;;;;;;25.50;18.13;;;537.70;947.20;;;;;;5020195;28;20029;-68
2021/03/29 06:26:19;;;;;;;27.60;19.20;;;538.10;921.60;;;;;;5031288;28;20041;-68
2021/03/29 06:28:46;;;;;;;35.08;22.73;;;563.30;947.20;;;;;;5026438;28;20441;-68
2021/03/29 06:31:27;;;;;;;24.40;17.17;;;564.10;896.00;;;;;;5020506;28;20030;-69
2021/03/29 06:33:54;;;;;;;27.00;18.35;;;589.20;870.40;;;;;;5013347;28;20025;-67
2021/03/29 06:36:28;;;;;;;28.08;19.70;;;589.70;870.40;;;;;;5025528;28;20163;-69
2021/03/29 06:38:56;;;;;;;33.95;24.30;;;614.80;819.20;;;;;;5015147;28;20052;-68
2021/03/29 06:41:28;;;;;;;27.80;19.27;;;614.60;844.80;;;;;;5019738;28;20040;-68
2021/03/29 06:43:53;;;;;;;30.48;20.75;;;615.00;819.20;;;;;;5030238;28;20112;-68
2021/03/29 06:46:23;;;;;;;29.90;22.25;;;614.70;844.80;;;;;;5030813;28;20232;-68
2021/03/29 06:48:50;;;;;;;29.38;22.05;;;615.20;819.20;;;;;;5031010;28;20061;-67
2021/03/29 06:51:20;;;;;;;33.35;23.25;;;665.70;793.60;;;;;;5030856;28;20089;-68
2021/03/29 06:53:57;;;;;;;42.15;30.33;;;666.20;768.00;;;;;;5027341;28;20501;-66
2021/03/29 06:56:30;;;;;;;28.80;21.13;;;666.50;768.00;;;;;;5030425;28;20025;-66
2021/03/29 06:59:22;;;;;;;30.23;21.50;;;716.90;793.60;;;;;;5027696;28;20043;-67
2021/03/29 07:01:50;;;;;;;29.20;20.38;;;692.10;768.00;;;;;;5030726;28;20104;-67
2021/03/29 07:04:23;;;;;;;26.20;21.58;;;717.20;768.00;;;;;;5030342;28;20029;-70
2021/03/29 07:06:50;;;;;;;24.50;18.98;;;717.50;742.40;;;;;;5018316;28;20034;-67
2021/03/29 07:09:19;;;;;;;26.52;19.88;;;742.90;742.40;;;;;;5028442;28;20087;-66
2021/03/29 07:11:47;;;;;;;25.88;20.35;;;768.20;716.80;;;;;;5028964;28;20060;-71
2021/03/29 07:14:17;;;;;;;25.73;21.27;;;768.20;716.80;;;;;;5028818;28;20030;-65
2021/03/29 07:16:44;;;;;;;;;;;768.90;691.20;;;;;;5016960;28;20029;-67
2021/03/29 07:19:10;;;;;;;24.13;18.77;;;819.20;691.20;;;;;;5018119;28;19956;-68
2021/03/29 07:21:37;;;;;;;21.38;17.67;;;819.20;691.20;;;;;;5027686;28;20443;-68
2021/03/29 07:24:08;;;;;;;27.40;20.27;;;794.40;691.20;;;;;;5020946;28;20506;-66
2021/03/29 07:26:41;;;;;;;23.77;17.60;;;819.50;665.60;;;;;;5011304;28;20026;-66
2021/03/29 07:29:18;;;;;;;23.92;17.55;;;820.00;665.60;;;;;;5017423;28;20125;-67
2021/03/29 07:31:46;;;;;;;18.50;15.18;;;870.50;640.00;;;;;;5021255;28;20022;-66
2021/03/29 07:34:12;;;;;;;22.25;16.98;;;871.10;614.40;;;;;;5012647;28;20025;-70
2021/03/29 07:36:46;;;;;;;27.08;21.95;;;896.60;588.80;;;;;;5013547;28;20021;-68
2021/03/29 07:39:18;;;;;;;24.95;19.55;;;921.70;614.40;;;;;;5021222;28;20103;-68
2021/03/29 07:41:44;;;;;;;26.88;19.42;;;922.50;588.80;;;;;;5017478;28;20052;-68
2021/03/29 07:44:11;;;;;;;20.10;16.02;;;947.40;588.80;;;;;;5025523;28;20049;-67
2021/03/29 07:46:39;;;;;;;26.02;20.08;;;948.10;563.20;;;;;;5024953;28;20029;-69
2021/03/29 07:49:25;;;;;;;22.25;17.00;;;973.70;563.20;;;;;;5028607;28;20057;-69
2021/03/29 07:52:30;;;;;;;17.52;14.07;;;973.70;537.60;;;;;;5030348;28;20025;-67
2021/03/29 07:54:58;;;;;;;16.48;13.73;;;1024.10;537.60;;;;;;5021939;28;20033;-66
2021/03/29 07:57:46;;;;;;;18.85;11.80;;;999.20;537.60;;;;;;5020980;28;20026;-69
2021/03/29 08:00:26;;;;;;;13.57;10.77;;;1024.10;537.60;;;;;;5017045;28;20025;-67
2021/03/29 08:02:55;;;;;;;14.60;11.10;;;1024.70;512.00;;;;;;5026278;28;20014;-70
2021/03/29 08:05:39;;;;;;;15.93;11.57;;;1049.80;537.60;;;;;;5018079;28;20449;-69
2021/03/29 08:08:25;;;;;;;15.93;11.68;;;1050.50;512.00;;;;;;5026280;28;20033;-67
2021/03/29 08:11:02;;;;;;;17.17;13.95;;;1075.90;486.40;;;;;;5013356;28;20060;-68
2021/03/29 08:13:43;;;;;;;14.95;11.18;;;1075.80;512.00;;;;;;5030782;28;20448;-70
2021/03/29 08:16:13;;;;;;;12.50;9.20;;;1075.90;512.00;;;;;;5033242;28;20025;-69
2021/03/29 08:18:57;;;;;;;;;;;1101.00;512.00;;;;;;5021084;28;20022;-69
2021/03/29 08:21:41;;;;;;;12.18;7.97;;;1101.20;512.00;;;;;;5033146;28;19909;-70
2021/03/29 08:24:14;;;;;;;11.32;7.05;;;1126.80;486.40;;;;;;5033335;28;20021;-69
2021/03/29 08:26:40;;;;;;;11.52;6.63;;;1127.30;486.40;;;;;;5029568;28;20379;-67
2021/03/29 08:29:10;;;;;;;13.40;9.48;;;1152.40;460.80;;;;;;5024079;28;20164;-71
2021/03/29 08:31:58;;;;;;;11.25;7.43;;;1152.50;460.80;;;;;;5015317;28;20026;-69
2021/03/29 08:34:25;;;;;;;9.68;7.70;;;1152.40;486.40;;;;;;5022093;28;20040;-70
2021/03/29 08:36:55;;;;;;;11.98;8.98;;;1152.20;486.40;;;;;;5022017;28;20034;-71
2021/03/29 08:39:22;;;;;;;11.32;7.93;;;1177.60;460.80;;;;;;5013745;28;20044;-71
2021/03/29 08:41:54;;;;;;;40.40;8.95;;;1177.60;460.80;;;;;;5016017;28;20026;-71
2021/03/29 08:44:21;;;;;;;11.20;7.45;;;1177.80;460.80;;;;;;5020762;28;20053;-70
2021/03/29 08:46:48;;;;;;;12.20;7.63;;;1178.30;460.80;;;;;;5020146;28;20029;-69
2021/03/29 08:49:14;;;;;;;8.77;6.18;;;1203.80;460.80;;;;;;5014575;28;20071;-69
2021/03/29 08:51:40;;;;;;;9.90;5.90;;;1203.70;460.80;;;;;;5027273;28;20038;-68
2021/03/29 08:54:10;;;;;;;9.80;6.55;;;1203.60;460.80;;;;;;5014241;28;20036;-69
2021/03/29 08:56:41;;;;;;;8.57;6.03;;;1203.40;460.80;;;;;;5028977;28;20037;-68
2021/03/29 08:59:08;;;;;;;7.40;4.90;;;1203.60;435.20;;;;;;5027993;28;20482;-74
2021/03/29 09:01:34;;;;;;;8.70;5.35;;;1203.70;435.20;;;;;;5030384;28;20025;-69
2021/03/29 09:04:04;;;;;;;10.13;6.05;;;1228.90;460.80;;;;;;5016301;28;20103;-71
2021/03/29 09:06:32;;;;;;;9.02;6.15;;;1229.40;460.80;;;;;;5023216;28;20478;-68
2021/03/29 09:09:08;;;;;;;10.90;6.80;;;1229.20;460.80;;;;;;5015871;28;20053;-68
2021/03/29 09:11:42;;;;;;;8.43;5.65;;;1228.80;460.80;;;;;;5023918;28;20052;-71
2021/03/29 09:14:09;;;;;;;8.00;5.50;;;1203.90;435.20;;;;;;5016110;28;20112;-70
2021/03/29 09:16:36;;;;;;;8.63;5.60;;;1203.20;460.80;;;;;;5030743;28;20132;-69
2021/03/29 09:19:19;;;;;;;8.10;5.68;;;1203.80;460.80;;;;;;5023413;28;20021;-70
2021/03/29 09:21:55;;;;;;;8.05;4.90;;;1204.10;460.80;;;;;;5015274;28;20088;-71
2021/03/29 09:24:27;;;;;;;8.82;5.80;;;1229.40;460.80;;;;;;5019776;28;20021;-72
2021/03/29 09:27:08;;;;;;;7.85;5.22;;;1228.80;460.80;;;;;;5018193;28;20025;-73
2021/03/29 09:29:42;;;;;;;8.93;5.85;;;1228.80;460.80;;;;;;5029731;28;20045;-67
2021/03/29 09:32:13;;;;;;;8.88;6.07;;;1229.00;460.80;;;;;;5030063;28;20501;-71
2021/03/29 09:34:39;;;;;;;10.38;4.72;;;1229.20;460.80;;;;;;5025447;28;20017;-68
2021/03/29 09:37:26;;;;;;;8.07;4.57;;;1228.80;460.80;;;;;;5016089;28;20032;-78
2021/03/29 09:40:10;;;;;;;8.30;5.10;;;1228.90;460.80;;;;;;5016122;28;20033;-70
2021/03/29 09:42:54;;;;;;;7.72;5.57;;;1254.60;486.40;;;;;;5024047;28;20025;-69
2021/03/29 09:45:26;;;;;;;7.85;5.95;;;1255.30;486.40;;;;;;5014645;28;20034;-70
2021/03/29 09:48:02;;;;;;;18.73;13.00;;;1255.30;486.40;;;;;;5025877;28;20060;-73
2021/03/29 09:50:31;;;;;;;13.68;10.20;;;1255.10;486.40;;;;;;5018708;28;20031;-78
2021/03/29 09:53:23;;;;;;;9.40;5.38;;;1203.80;460.80;;;;;;5017114;28;20104;-77
2021/03/29 09:55:56;;;;;;;9.38;5.40;;;1229.50;460.80;;;;;;5015800;28;20051;-72
2021/03/29 09:58:30;;;;;;;16.67;11.13;;;1229.70;460.80;;;;;;5024480;28;20112;-71
2021/03/29 10:01:02;;;;;;;12.07;7.90;;;1229.70;460.80;;;;;;5017991;28;20543;-70
2021/03/29 10:03:28;;;;;;;12.30;7.05;;;1254.50;486.40;;;;;;5031255;28;20493;-70
2021/03/29 10:05:55;;;;;;;10.20;6.18;;;1254.50;486.40;;;;;;5019011;28;20022;-72
2021/03/29 10:08:29;;;;;;;10.93;6.22;;;1254.60;486.40;;;;;;5016572;28;20029;-71
2021/03/29 10:11:09;;;;;;;9.77;5.75;;;1255.30;486.40;;;;;;5015064;28;20021;-73
2021/03/29 10:13:41;;;;;;;11.52;6.10;;;1254.90;486.40;;;;;;5022153;28;20498;-71
2021/03/29 10:16:25;;;;;;;9.55;5.13;;;1280.70;486.40;;;;;;5017041;28;20088;-70
2021/03/29 10:19:10;;;;;;;8.65;5.05;;;1305.90;486.40;;;;;;5025356;28;20037;-72
2021/03/29 10:21:59;;;;;;;7.40;5.20;;;1280.50;486.40;;;;;;5025444;28;20026;-70
2021/03/29 10:24:25;;;;;;;8.45;5.32;;;1254.40;486.40;;;;;;5017432;28;20459;-70
2021/03/29 10:26:57;;;;;;;6.72;4.57;;;1255.00;486.40;;;;;;5014863;28;20102;-70
2021/03/29 10:29:42;;;;;;;8.63;5.05;;;1280.20;486.40;;;;;;5021068;28;20030;-72
2021/03/29 10:32:12;;;;;;;6.72;4.65;;;1280.00;486.40;;;;;;5022042;28;20025;-72
2021/03/29 10:34:40;;;;;;;7.85;4.55;;;1280.40;486.40;;;;;;5019536;28;20022;-72
2021/03/29 10:37:23;;;;;;;7.55;4.50;;;1254.90;486.40;;;;;;5028972;28;20030;-70
2021/03/29 10:39:51;;;;;;;7.63;4.22;;;1280.40;486.40;;;;;;5020023;28;21469;-69
2021/03/29 10:42:18;;;;;;;6.43;4.00;;;1229.20;460.80;;;;;;5016577;28;20386;-70
2021/03/29 10:44:44;;;;;;;6.80;3.72;;;1203.60;435.20;;;;;;5025840;28;20033;-70
2021/03/29 10:47:10;;;;;;;7.72;3.97;;;1229.40;460.80;;;;;;5012641;28;20483;-69
2021/03/29 10:49:38;;;;;;;9.75;4.30;;;1229.40;460.80;;;;;;5027947;28;20415;-69
2021/03/29 10:52:04;;;;;;;5.10;2.80;;;1177.70;460.80;;;;;;5014015;28;20030;-69
2021/03/29 10:54:30;;;;;;;5.45;2.78;;;1049.60;512.00;;;;;;5016399;28;20542;-69
2021/03/29 10:56:55;;;;;;;8.43;2.90;;;922.50;512.00;;;;;;5024993;28;20053;-68
2021/03/29 10:59:21;;;;;;;5.25;2.92;;;845.30;588.80;;;;;;5016859;28;20040;-70
2021/03/29 11:01:47;;;;;;;12.75;8.05;;;768.90;614.40;;;;;;5026690;28;20036;-68
2021/03/29 11:04:13;;;;;;;9.95;5.03;;;717.50;665.60;;;;;;5026939;28;20022;-67
2021/03/29 11:06:39;;;;;;;28.20;17.25;;;691.30;691.20;;;;;;5030545;28;20025;-67
2021/03/29 11:09:06;;;;;;;31.27;20.55;;;666.00;716.80;;;;;;5022497;28;20471;-68
2021/03/29 11:11:32;;;;;;;20.02;12.48;;;640.40;716.80;;;;;;5026415;28;20025;-66
2021/03/29 11:13:57;;;;;;;8.68;5.60;;;615.20;716.80;;;;;;5029903;28;20033;-67
2021/03/29 11:16:24;;;;;;;11.52;7.93;;;614.80;742.40;;;;;;5030336;28;20057;-68
2021/03/29 11:18:50;;;;;;;13.93;8.73;;;589.60;742.40;;;;;;5029416;28;20064;-68
2021/03/29 11:21:16;;;;;;;8.68;4.40;;;589.30;768.00;;;;;;5029470;28;20053;-67
2021/03/29 11:23:42;;;;;;;8.13;4.13;;;589.00;793.60;;;;;;5013974;28;20522;-70
2021/03/29 11:26:08;;;;;;;7.43;4.40;;;588.80;793.60;;;;;;5027270;28;20061;-67
2021/03/29 11:28:34;;;;;;;7.18;3.80;;;563.80;793.60;;;;;;5028732;28;20052;-68
2021/03/29 11:31:00;;;;;;;7.65;4.15;;;563.80;819.20;;;;;;5024743;28;20053;-67
2021/03/29 11:33:25;;;;;;;8.05;4.35;;;563.60;819.20;;;;;;5030916;28;20382;-70
2021/03/29 11:35:51;;;;;;;11.00;6.82;;;563.30;844.80;;;;;;5024544;28;20045;-68
2021/03/29 11:38:17;;;;;;;12.27;5.97;;;563.20;844.80;;;;;;5017241;28;20090;-67
2021/03/29 11:40:43;;;;;;;10.18;5.07;;;563.30;870.40;;;;;;5032626;28;20087;-68
2021/03/29 11:43:09;;;;;;;13.43;5.50;;;538.50;819.20;;;;;;5033574;28;20083;-68
2021/03/29 11:45:35;;;;;;;8.23;4.50;;;563.20;870.40;;;;;;5024479;28;20068;-67
2021/03/29 11:48:00;;;;;;;7.05;4.00;;;538.50;844.80;;;;;;5018663;28;20469;-66
2021/03/29 11:50:26;;;;;;;8.43;4.03;;;538.50;844.80;;;;;;5030007;28;20386;-66
2021/03/29 11:52:52;;;;;;;6.13;3.50;;;563.20;870.40;;;;;;5024939;28;20021;-66
2021/03/29 11:55:18;;;;;;;6.60;3.90;;;538.50;819.20;;;;;;5018115;28;20700;-67
2021/03/29 11:57:47;;;;;;;11.02;5.35;;;563.20;870.40;;;;;;5020800;28;20119;-68
2021/03/29 12:00:47;;;;;;;11.07;5.28;;;538.50;844.80;;;;;;5021299;28;20036;-68
2021/03/29 12:03:21;;;;;;;7.60;4.38;;;538.50;844.80;;;;;;5014045;28;20033;-67
2021/03/29 12:05:54;;;;;;;7.47;3.83;;;538.50;844.80;;;;;;5014213;28;20033;-67
2021/03/29 12:08:40;;;;;;;8.93;4.57;;;538.50;819.20;;;;;;5018261;28;20042;-67
2021/03/29 12:13:55;;;;;;;7.20;3.88;;;537.90;844.80;;;;;;5024706;28;20025;-67
2021/03/29 12:16:23;;;;;;;7.47;4.10;;;537.60;844.80;;;;;;5017315;28;20022;-67
2021/03/29 12:18:53;;;;;;;6.70;3.95;;;537.80;870.40;;;;;;5015696;28;20108;-68
2021/03/29 12:21:25;;;;;;;10.07;4.70;;;538.00;870.40;;;;;;5023102;28;20038;-69
2021/03/29 12:23:56;;;;;;;7.88;4.22;;;538.10;870.40;;;;;;5019774;28;20025;-67
2021/03/29 12:26:23;;;;;;;8.20;4.43;;;538.20;870.40;;;;;;5017305;28;20097;-70